createdAt,value
2023-04-09T00:01:30.273Z,62.34
2023-04-09T00:03:56.807Z,62.25
2023-04-09T00:06:23.289Z,62.24
2023-04-09T00:08:49.850Z,62.21
2023-04-09T00:11:16.398Z,62.45
2023-04-09T00:13:42.814Z,62.33
2023-04-09T00:16:09.346Z,62.56
2023-04-09T00:18:36.197Z,62.48
2023-04-09T00:21:02.715Z,62.71
2023-04-09T00:23:29.201Z,62.78
2023-04-09T00:25:55.660Z,62.89
2023-04-09T00:28:22.139Z,63.10
2023-04-09T00:30:48.639Z,63.27
2023-04-09T00:33:15.343Z,63.11
2023-04-09T00:35:41.790Z,63.33
2023-04-09T00:38:08.259Z,63.41
2023-04-09T00:40:34.761Z,63.60
2023-04-09T00:43:02.293Z,63.85
2023-04-09T00:45:28.796Z,64.03
2023-04-09T00:47:55.608Z,64.00
2023-04-09T00:50:22.235Z,64.03
2023-04-09T00:52:48.702Z,64.20
2023-04-09T00:55:15.512Z,64.52
2023-04-09T00:57:41.981Z,64.28
2023-04-09T01:00:11.217Z,64.39
2023-04-09T01:02:38.311Z,64.49
2023-04-09T01:05:05.793Z,64.35
2023-04-09T01:08:03.237Z,65.71
2023-04-09T01:10:37.702Z,64.86
2023-04-09T01:13:10.220Z,65.22
2023-04-09T01:15:52.054Z,65.50
2023-04-09T01:18:28.971Z,65.40
2023-04-09T01:20:59.460Z,64.27
2023-04-09T01:23:37.250Z,65.36
2023-04-09T01:26:11.147Z,65.20
2023-04-09T01:28:43.358Z,64.62
2023-04-09T01:31:14.032Z,64.29
2023-04-09T01:33:44.307Z,64.52
2023-04-09T01:36:11.598Z,64.15
2023-04-09T01:38:41.487Z,64.19
2023-04-09T01:41:12.487Z,64.09
2023-04-09T01:43:39.887Z,63.94
2023-04-09T01:46:06.512Z,63.92
2023-04-09T01:48:34.104Z,64.04
2023-04-09T01:51:01.347Z,64.10
2023-04-09T01:53:31.110Z,64.25
2023-04-09T01:56:01.485Z,64.62
2023-04-09T01:58:28.159Z,64.22
2023-04-09T02:01:06.564Z,65.60
2023-04-09T02:03:37.996Z,64.66
2023-04-09T02:06:15.630Z,64.59
2023-04-09T02:08:47.115Z,64.80
2023-04-09T02:11:15.952Z,64.15
2023-04-09T02:13:44.076Z,64.53
2023-04-09T02:16:13.741Z,64.41
2023-04-09T02:18:40.284Z,64.74
2023-04-09T02:21:07.308Z,64.21
2023-04-09T02:23:33.718Z,64.32
2023-04-09T02:26:01.913Z,64.51
2023-04-09T02:28:28.453Z,64.65
2023-04-09T02:30:54.924Z,64.62
2023-04-09T02:33:21.497Z,64.70
2023-04-09T02:35:47.972Z,65.03
2023-04-09T02:38:15.899Z,64.72
2023-04-09T02:40:42.417Z,64.87
2023-04-09T02:43:10.149Z,65.02
2023-04-09T02:45:36.738Z,65.07
2023-04-09T02:48:03.535Z,64.96
2023-04-09T02:50:29.972Z,64.85
2023-04-09T02:52:56.452Z,64.84
2023-04-09T02:55:23.257Z,65.17
2023-04-09T02:57:49.695Z,65.46
2023-04-09T03:00:16.293Z,65.05
2023-04-09T03:02:43.001Z,65.38
2023-04-09T03:05:09.775Z,65.18
2023-04-09T03:07:36.187Z,65.62
2023-04-09T03:10:02.681Z,65.42
2023-04-09T03:12:29.139Z,65.36
2023-04-09T03:14:55.743Z,65.25
2023-04-09T03:17:24.600Z,65.51
2023-04-09T03:19:51.196Z,65.86
2023-04-09T03:22:17.568Z,65.79
2023-04-09T03:24:44.049Z,65.98
2023-04-09T03:27:10.556Z,65.96
2023-04-09T03:29:37.032Z,66.01
2023-04-09T03:32:03.472Z,65.87
2023-04-09T03:34:29.917Z,65.95
2023-04-09T03:36:56.350Z,65.88
2023-04-09T03:39:25.066Z,65.74
2023-04-09T03:41:51.510Z,66.19
2023-04-09T03:44:17.931Z,66.28
2023-04-09T03:46:44.373Z,65.84
2023-04-09T03:49:10.830Z,65.82
2023-04-09T03:51:37.256Z,66.23
2023-04-09T03:54:03.851Z,66.03
2023-04-09T03:56:30.316Z,66.33
2023-04-09T03:58:56.729Z,66.40
2023-04-09T04:01:23.177Z,66.13
2023-04-09T04:03:49.921Z,66.28
2023-04-09T04:06:16.472Z,66.26
2023-04-09T04:11:20.443Z,66.29
2023-04-09T04:13:46.937Z,66.27
2023-04-09T04:16:13.450Z,66.65
2023-04-09T04:18:39.992Z,66.12
2023-04-09T04:21:13.040Z,66.73
2023-04-09T04:23:39.419Z,67.15
2023-04-09T04:26:12.471Z,66.30
2023-04-09T04:28:39.314Z,66.83
2023-04-09T04:31:12.474Z,66.19
2023-04-09T04:33:41.175Z,65.84
2023-04-09T04:36:12.877Z,66.43
2023-04-09T04:38:41.256Z,65.83
2023-04-09T04:41:08.235Z,65.84
2023-04-09T04:43:34.952Z,66.09
2023-04-09T04:46:01.867Z,66.43
2023-04-09T04:48:29.276Z,66.34
2023-04-09T04:50:57.623Z,66.10
2023-04-09T04:53:24.271Z,66.27
2023-04-09T04:55:50.954Z,66.19
2023-04-09T04:58:18.048Z,66.28
2023-04-09T05:00:45.301Z,66.33
2023-04-09T05:03:12.708Z,66.30
2023-04-09T05:05:39.288Z,66.54
2023-04-09T05:08:06.017Z,66.47
2023-04-09T05:10:32.533Z,66.73
2023-04-09T05:12:59.087Z,66.55
2023-04-09T05:15:25.586Z,66.68
2023-04-09T05:17:52.415Z,67.05
2023-04-09T05:20:18.853Z,67.09
2023-04-09T05:22:45.394Z,66.84
2023-04-09T05:25:11.849Z,67.06
2023-04-09T05:27:38.338Z,66.82
2023-04-09T05:30:05.043Z,67.15
2023-04-09T05:32:31.587Z,66.95
2023-04-09T05:34:58.173Z,67.01
2023-04-09T05:37:25.424Z,67.42
2023-04-09T05:39:52.018Z,67.44
2023-04-09T05:42:18.671Z,67.27
2023-04-09T05:44:45.308Z,67.52
2023-04-09T05:47:11.772Z,67.12
2023-04-09T05:49:38.349Z,67.25
2023-04-09T05:52:05.064Z,67.36
2023-04-09T05:54:31.963Z,67.41
2023-04-09T05:56:58.504Z,67.55
2023-04-09T05:59:25.028Z,67.58
2023-04-09T06:01:51.507Z,67.64
2023-04-09T06:04:18.415Z,67.52
2023-04-09T06:06:45.886Z,67.68
2023-04-09T06:09:12.698Z,68.01
2023-04-09T06:11:39.234Z,67.75
2023-04-09T06:14:05.859Z,67.74
2023-04-09T06:16:33.688Z,68.12
2023-04-09T06:19:00.189Z,67.96
2023-04-09T06:21:26.829Z,67.84
2023-04-09T06:23:53.958Z,67.80
2023-04-09T06:26:21.153Z,68.07
2023-04-09T06:28:47.748Z,68.27
2023-04-09T06:31:14.339Z,67.94
2023-04-09T06:33:41.259Z,68.10
2023-04-09T06:36:08.111Z,68.02
2023-04-09T06:38:34.620Z,68.03
2023-04-09T06:41:01.140Z,67.92
2023-04-09T06:43:27.825Z,68.29
2023-04-09T06:45:54.338Z,68.42
2023-04-09T06:48:20.899Z,68.28
2023-04-09T06:50:47.483Z,68.39
2023-04-09T06:53:15.138Z,68.47
2023-04-09T06:55:42.091Z,68.58
2023-04-09T06:58:08.646Z,68.61
2023-04-09T07:00:35.491Z,68.48
2023-04-09T07:03:02.609Z,68.68
2023-04-09T07:05:30.725Z,68.45
2023-04-09T07:07:57.186Z,68.36
2023-04-09T07:10:23.786Z,68.72
2023-04-09T07:12:50.258Z,68.82
2023-04-09T07:15:16.773Z,68.62
2023-04-09T07:17:43.368Z,68.82
2023-04-09T07:20:10.465Z,68.51
2023-04-09T07:22:37.097Z,68.55
2023-04-09T07:25:04.030Z,68.37
2023-04-09T07:27:30.535Z,68.47
2023-04-09T07:29:59.118Z,68.24
2023-04-09T07:32:27.912Z,68.02
2023-04-09T07:34:55.741Z,68.03
2023-04-09T07:37:22.327Z,67.64
2023-04-09T07:39:49.647Z,67.88
2023-04-09T07:42:16.115Z,67.74
2023-04-09T07:44:43.849Z,67.49
2023-04-09T07:47:11.271Z,67.37
2023-04-09T07:49:40.988Z,67.34
2023-04-09T07:52:08.167Z,67.22
2023-04-09T07:54:35.430Z,67.14
2023-04-09T07:57:02.089Z,67.01
2023-04-09T07:59:29.653Z,67.21
2023-04-09T08:01:56.782Z,66.97
2023-04-09T08:04:23.501Z,66.89
2023-04-09T08:06:51.110Z,66.76
2023-04-09T08:09:18.687Z,66.71
2023-04-09T08:11:45.860Z,66.87
2023-04-09T08:14:13.078Z,66.60
2023-04-09T08:16:41.628Z,66.63
2023-04-09T08:19:09.294Z,66.51
2023-04-09T08:21:46.100Z,66.24
2023-04-09T08:24:12.868Z,66.35
2023-04-09T08:26:40.339Z,66.32
2023-04-09T08:29:08.423Z,66.38
2023-04-09T08:31:36.557Z,66.37
2023-04-09T08:34:03.425Z,66.38
2023-04-09T08:36:30.072Z,66.43
2023-04-09T08:38:57.061Z,66.38
2023-04-09T08:41:26.171Z,66.34
2023-04-09T08:43:58.248Z,66.33
2023-04-09T08:46:26.135Z,66.25
2023-04-09T08:48:53.362Z,66.02
2023-04-09T08:51:22.371Z,66.06
2023-04-09T08:54:00.777Z,65.92
2023-04-09T08:56:30.459Z,66.12
2023-04-09T08:58:57.028Z,65.94
2023-04-09T09:01:24.417Z,65.53
2023-04-09T09:04:01.820Z,64.72
2023-04-09T09:06:32.950Z,64.90
2023-04-09T09:09:04.973Z,64.00
2023-04-09T09:11:32.486Z,64.23
2023-04-09T09:14:06.872Z,63.20
2023-04-09T09:16:35.889Z,63.65
2023-04-09T09:19:03.106Z,63.64
2023-04-09T09:21:30.199Z,63.50
2023-04-09T09:23:57.663Z,63.25
2023-04-09T09:26:27.240Z,62.93
2023-04-09T09:28:54.009Z,63.24
2023-04-09T09:31:22.462Z,63.17
2023-04-09T09:33:50.597Z,62.62
2023-04-09T09:36:34.363Z,61.28
2023-04-09T09:39:10.093Z,62.41
2023-04-09T09:41:36.978Z,62.63
2023-04-09T09:44:04.555Z,62.70
2023-04-09T09:46:35.771Z,61.55
2023-04-09T09:49:02.520Z,62.17
2023-04-09T09:51:29.146Z,61.60
2023-04-09T09:53:57.221Z,61.78
2023-04-09T09:56:35.084Z,60.47
2023-04-09T09:59:07.883Z,59.68
2023-04-09T10:01:37.553Z,60.60
2023-04-09T10:04:07.099Z,59.25
2023-04-09T10:06:41.664Z,57.90
2023-04-09T10:09:08.582Z,58.66
2023-04-09T10:11:37.058Z,58.71
2023-04-09T10:14:05.115Z,58.55
2023-04-09T10:16:32.064Z,58.14
2023-04-09T10:18:59.729Z,57.70
2023-04-09T10:21:43.996Z,56.76
2023-04-09T10:24:11.192Z,57.26
2023-04-09T10:26:41.750Z,55.74
2023-04-09T10:29:16.635Z,54.91
2023-04-09T10:31:52.346Z,54.05
2023-04-09T10:34:23.559Z,54.39
2023-04-09T10:36:55.941Z,54.20
2023-04-09T10:39:32.004Z,52.77
2023-04-09T10:42:00.105Z,53.82
2023-04-09T10:44:27.905Z,53.14
2023-04-09T10:46:55.390Z,52.43
2023-04-09T10:49:23.495Z,51.73
2023-04-09T10:51:53.605Z,50.26
2023-04-09T10:54:35.224Z,50.24
2023-04-09T10:57:07.654Z,49.89
2023-04-09T10:59:38.642Z,51.49
2023-04-09T11:02:08.923Z,50.54
2023-04-09T11:04:51.876Z,50.37
2023-04-09T11:07:22.273Z,52.70
2023-04-09T11:09:48.742Z,54.20
2023-04-09T11:12:15.326Z,53.31
2023-04-09T11:14:41.747Z,52.51
2023-04-09T11:17:08.271Z,51.27
2023-04-09T11:19:34.886Z,51.64
2023-04-09T11:22:06.448Z,51.12
2023-04-09T11:24:43.280Z,50.04
2023-04-09T11:27:09.813Z,52.06
2023-04-09T11:29:36.633Z,52.29
2023-04-09T11:32:05.136Z,52.17
2023-04-09T11:34:32.271Z,50.92
2023-04-09T11:36:59.752Z,48.67
2023-04-09T11:39:26.378Z,47.79
2023-04-09T11:41:53.230Z,44.72
2023-04-09T11:44:20.960Z,42.47
2023-04-09T11:46:49.151Z,40.67
2023-04-09T11:49:17.200Z,40.13
2023-04-09T11:51:43.710Z,41.01
2023-04-09T11:54:11.870Z,41.42
2023-04-09T11:56:38.399Z,42.40
2023-04-09T11:59:04.947Z,42.72
2023-04-09T12:01:35.293Z,40.46
2023-04-09T12:04:02.058Z,40.26
2023-04-09T12:06:29.700Z,38.10
2023-04-09T12:08:57.349Z,37.38
2023-04-09T12:11:31.712Z,35.23
2023-04-09T12:14:07.641Z,35.71
2023-04-09T12:16:35.468Z,36.77
2023-04-09T12:19:03.418Z,36.81
2023-04-09T12:21:48.935Z,37.59
2023-04-09T12:24:17.090Z,36.96
2023-04-09T12:26:46.016Z,37.17
2023-04-09T12:29:16.977Z,36.32
2023-04-09T12:31:44.521Z,37.84
2023-04-09T12:34:11.206Z,38.07
2023-04-09T12:36:38.889Z,38.55
2023-04-09T12:39:05.439Z,39.87
2023-04-09T12:41:31.907Z,38.99
2023-04-09T12:43:58.459Z,38.17
2023-04-09T12:46:25.808Z,37.97
2023-04-09T12:48:52.292Z,36.47
2023-04-09T12:51:18.867Z,36.25
2023-04-09T12:53:45.292Z,36.64
2023-04-09T12:56:11.730Z,36.89
2023-04-09T12:58:38.480Z,38.18
2023-04-09T13:01:05.404Z,39.80
2023-04-09T13:03:32.344Z,41.37
2023-04-09T13:05:58.973Z,40.61
2023-04-09T13:08:25.469Z,38.51
2023-04-09T13:10:51.952Z,37.57
2023-04-09T13:13:18.388Z,36.43
2023-04-09T13:15:45.010Z,35.91
2023-04-09T13:18:12.756Z,35.73
2023-04-09T13:20:39.394Z,36.15
2023-04-09T13:23:06.347Z,35.40
2023-04-09T13:25:32.838Z,35.49
2023-04-09T13:28:24.037Z,35.37
2023-04-09T13:30:48.022Z,35.42
2023-04-09T13:33:14.510Z,35.58
2023-04-09T13:35:40.984Z,35.95
2023-04-09T13:38:07.600Z,35.52
2023-04-09T13:40:33.989Z,35.39
2023-04-09T13:43:01.017Z,35.61
2023-04-09T13:45:27.472Z,36.00
2023-04-09T13:47:53.980Z,35.74
2023-04-09T13:50:20.438Z,35.88
2023-04-09T13:52:46.879Z,35.69
2023-04-09T13:55:13.293Z,36.50
2023-04-09T13:57:39.722Z,36.50
2023-04-09T14:00:08.104Z,36.73
2023-04-09T14:02:34.747Z,37.04
2023-04-09T14:05:03.568Z,36.85
2023-04-09T14:07:30.781Z,37.35
2023-04-09T14:09:57.265Z,37.78
2023-04-09T14:12:24.927Z,38.46
2023-04-09T14:14:51.800Z,38.08
2023-04-09T14:17:18.341Z,37.52
2023-04-09T14:19:44.780Z,37.64
2023-04-09T14:22:11.471Z,37.63
2023-04-09T14:24:39.879Z,37.93
2023-04-09T14:27:07.690Z,37.70
2023-04-09T14:29:34.614Z,38.15
2023-04-09T14:32:01.322Z,37.66
2023-04-09T14:34:31.219Z,37.07
2023-04-09T14:36:57.771Z,37.82
2023-04-09T14:39:24.333Z,37.84
2023-04-09T14:41:50.869Z,38.68
2023-04-09T14:44:17.610Z,38.24
2023-04-09T14:46:44.258Z,38.05
2023-04-09T14:49:10.679Z,37.29
2023-04-09T14:51:37.312Z,37.28
2023-04-09T14:54:03.816Z,37.22
2023-04-09T14:56:30.311Z,36.91
2023-04-09T14:58:56.833Z,37.27
2023-04-09T15:01:23.267Z,37.37
2023-04-09T15:03:49.909Z,37.14
2023-04-09T15:06:16.614Z,37.67
2023-04-09T15:08:43.130Z,37.56
2023-04-09T15:11:15.805Z,37.51
2023-04-09T15:13:42.342Z,38.06
2023-04-09T15:16:08.945Z,38.09
2023-04-09T15:18:37.329Z,38.80
2023-04-09T15:21:03.935Z,38.96
2023-04-09T15:23:30.707Z,39.72
2023-04-09T15:25:57.237Z,39.12
2023-04-09T15:28:23.750Z,39.55
2023-04-09T15:30:50.417Z,39.39
2023-04-09T15:33:16.863Z,39.20
2023-04-09T15:35:43.323Z,39.90
2023-04-09T15:38:09.851Z,39.73
2023-04-09T15:40:36.363Z,39.77
2023-04-09T15:43:02.765Z,39.95
2023-04-09T15:45:29.264Z,40.07
2023-04-09T15:47:55.755Z,39.74
2023-04-09T15:50:22.278Z,40.50
2023-04-09T15:52:48.930Z,40.29
2023-04-09T15:55:16.040Z,40.51
2023-04-09T15:57:46.641Z,40.97
2023-04-09T16:00:13.377Z,40.49
2023-04-09T16:02:40.852Z,40.21
2023-04-09T16:05:07.793Z,40.13
2023-04-09T16:07:34.928Z,40.07
2023-04-09T16:13:35.716Z,40.30
2023-04-09T16:16:02.480Z,40.15
2023-04-09T16:18:29.424Z,40.31
2023-04-09T16:20:57.126Z,39.94
2023-04-09T16:23:25.331Z,40.46
2023-04-09T16:25:52.227Z,40.62
2023-04-09T16:28:21.610Z,40.54
2023-04-09T16:30:50.281Z,40.52
2023-04-09T16:33:17.007Z,40.65
2023-04-09T16:35:43.566Z,40.66
2023-04-09T16:38:10.341Z,40.92
2023-04-09T16:40:37.066Z,40.67
2023-04-09T16:43:04.276Z,40.83
2023-04-09T16:45:32.033Z,40.96
2023-04-09T16:47:58.656Z,40.86
2023-04-09T16:50:25.321Z,41.07
2023-04-09T16:52:51.935Z,40.82
2023-04-09T16:55:18.489Z,40.58
2023-04-09T16:57:45.065Z,40.51
2023-04-09T17:00:12.796Z,40.44
2023-04-09T17:02:39.611Z,40.33
2023-04-09T17:05:06.676Z,40.40
2023-04-09T17:07:33.643Z,40.36
2023-04-09T17:10:02.829Z,40.56
2023-04-09T17:12:29.395Z,40.74
2023-04-09T17:14:56.020Z,40.74
2023-04-09T17:17:22.520Z,40.79
2023-04-09T17:19:49.094Z,40.79
2023-04-09T17:22:17.779Z,40.93
2023-04-09T17:24:44.932Z,40.97
2023-04-09T17:27:11.433Z,41.04
2023-04-09T17:29:38.060Z,40.95
2023-04-09T17:32:04.736Z,41.04
2023-04-09T17:34:31.322Z,40.89
2023-04-09T17:36:59.772Z,40.89
2023-04-09T17:39:27.100Z,41.05
2023-04-09T17:41:56.381Z,41.08
2023-04-09T17:44:24.978Z,41.08
2023-04-09T17:46:52.013Z,41.41
2023-04-09T17:49:18.492Z,41.54
2023-04-09T17:51:45.092Z,41.56
2023-04-09T17:54:12.513Z,41.61
2023-04-09T17:56:39.129Z,41.88
2023-04-09T17:59:06.731Z,41.69
2023-04-09T18:01:33.464Z,41.71
2023-04-09T18:04:01.570Z,41.80
2023-04-09T18:06:28.394Z,41.92
2023-04-09T18:08:54.903Z,41.97
2023-04-09T18:11:21.650Z,42.08
2023-04-09T18:13:48.439Z,42.14
2023-04-09T18:16:15.141Z,42.29
2023-04-09T18:18:41.618Z,42.32
2023-04-09T18:21:08.178Z,42.44
2023-04-09T18:23:34.887Z,42.52
2023-04-09T18:26:01.778Z,42.75
2023-04-09T18:28:28.334Z,43.01
2023-04-09T18:30:54.971Z,43.18
2023-04-09T18:33:21.680Z,43.55
2023-04-09T18:35:48.229Z,43.55
2023-04-09T18:38:14.967Z,43.55
2023-04-09T18:40:43.558Z,43.90
2023-04-09T18:43:11.763Z,44.08
2023-04-09T18:45:39.637Z,44.09
2023-04-09T18:48:08.059Z,44.28
2023-04-09T18:50:34.933Z,44.22
2023-04-09T18:53:03.415Z,44.22
2023-04-09T18:55:30.142Z,44.66
2023-04-09T18:57:57.541Z,44.61
2023-04-09T19:00:24.117Z,44.76
2023-04-09T19:02:50.908Z,44.85
2023-04-09T19:05:17.626Z,44.80
2023-04-09T19:07:44.037Z,44.95
2023-04-09T19:10:10.828Z,45.13
2023-04-09T19:12:38.038Z,45.32
2023-04-09T19:15:06.145Z,45.38
2023-04-09T19:17:34.023Z,45.39
2023-04-09T19:20:01.072Z,45.31
2023-04-09T19:22:28.122Z,45.82
2023-04-09T19:24:54.698Z,45.83
2023-04-09T19:27:21.135Z,45.77
2023-04-09T19:29:47.698Z,46.11
2023-04-09T19:32:14.744Z,46.00
2023-04-09T19:34:41.331Z,46.12
2023-04-09T19:40:04.693Z,46.22
2023-04-09T19:42:32.878Z,46.28
2023-04-09T19:45:00.353Z,46.29
2023-04-09T19:47:27.755Z,46.35
2023-04-09T19:49:54.521Z,46.57
2023-04-09T19:52:21.326Z,46.76
2023-04-09T19:54:48.093Z,46.63
2023-04-09T19:57:15.322Z,46.65
2023-04-09T19:59:41.967Z,46.57
2023-04-09T20:02:08.811Z,46.97
2023-04-09T20:04:35.657Z,46.82
2023-04-09T20:07:02.178Z,46.83
2023-04-09T20:09:29.170Z,46.93
2023-04-09T20:11:55.800Z,46.83
2023-04-09T20:14:22.415Z,46.79
2023-04-09T20:16:48.985Z,47.10
2023-04-09T20:19:15.537Z,47.19
2023-04-09T20:21:43.551Z,47.36
2023-04-09T20:24:10.084Z,47.24
2023-04-09T20:26:36.704Z,47.28
2023-04-09T20:29:03.186Z,47.16
2023-04-09T20:31:30.944Z,47.40
2023-04-09T20:33:57.591Z,47.38
2023-04-09T20:36:24.308Z,47.24
2023-04-09T20:38:50.857Z,47.14
2023-04-09T20:41:17.481Z,47.09
2023-04-09T20:43:44.108Z,47.04
2023-04-09T20:46:11.025Z,47.01
2023-04-09T20:48:37.962Z,47.22
2023-04-09T20:51:10.066Z,47.46
2023-04-09T20:53:37.524Z,46.83
2023-04-09T20:56:06.047Z,47.11
2023-04-09T20:58:33.475Z,47.03
2023-04-09T21:01:06.430Z,47.24
2023-04-09T21:03:36.744Z,47.08
2023-04-09T21:06:03.528Z,46.59
2023-04-09T21:08:30.826Z,46.99
2023-04-09T21:10:57.401Z,47.00
2023-04-09T21:13:24.333Z,47.17
2023-04-09T21:15:51.290Z,47.20
2023-04-09T21:18:17.899Z,46.92
2023-04-09T21:20:47.703Z,47.19
2023-04-09T21:23:15.072Z,47.18
2023-04-09T21:25:42.076Z,47.02
2023-04-09T21:28:09.009Z,47.11
2023-04-09T21:30:37.820Z,47.08
2023-04-09T21:33:06.627Z,47.05
2023-04-09T21:35:34.084Z,47.08
2023-04-09T21:38:00.668Z,47.07
2023-04-09T21:40:27.205Z,47.16
2023-04-09T21:42:53.723Z,47.12
2023-04-09T21:45:21.140Z,47.15
2023-04-09T21:47:47.671Z,47.01
2023-04-09T21:50:14.733Z,47.18
2023-04-09T21:52:41.750Z,47.24
2023-04-09T21:55:10.311Z,47.15
2023-04-09T21:57:36.875Z,47.24
2023-04-09T22:00:05.336Z,47.44
2023-04-09T22:02:31.966Z,47.28
2023-04-09T22:04:59.957Z,47.21
2023-04-09T22:07:26.816Z,47.39
2023-04-09T22:09:58.107Z,47.70
2023-04-09T22:12:35.146Z,47.19
2023-04-09T22:15:18.914Z,47.24
2023-04-09T22:17:51.065Z,47.53
2023-04-09T22:20:31.432Z,47.24
2023-04-09T22:23:00.915Z,47.48
2023-04-09T22:25:34.805Z,47.50
2023-04-09T22:28:14.766Z,47.58
2023-04-09T22:30:49.752Z,47.59
2023-04-09T22:33:21.592Z,47.55
2023-04-09T22:35:50.356Z,47.44
2023-04-09T22:38:22.817Z,47.71
2023-04-09T22:40:56.060Z,47.58
2023-04-09T22:43:27.195Z,47.41
2023-04-09T22:46:18.113Z,47.79
2023-04-09T22:49:03.902Z,47.51
2023-04-09T22:51:45.452Z,47.53
2023-04-09T22:54:12.092Z,47.65
2023-04-09T22:56:38.639Z,47.45
2023-04-09T22:59:06.101Z,47.39
2023-04-09T23:01:32.774Z,47.92
2023-04-09T23:03:59.256Z,47.84
2023-04-09T23:06:25.901Z,47.75
2023-04-09T23:08:52.545Z,47.61
2023-04-09T23:11:19.369Z,47.56
2023-04-09T23:13:47.050Z,47.86
2023-04-09T23:16:13.976Z,47.79
2023-04-09T23:18:40.723Z,47.67
2023-04-09T23:21:08.717Z,47.86
2023-04-09T23:23:36.353Z,47.93
2023-04-09T23:26:02.923Z,47.72
2023-04-09T23:28:29.883Z,47.79
2023-04-09T23:30:56.888Z,47.93
2023-04-09T23:33:24.017Z,47.67
2023-04-09T23:35:50.938Z,47.84
2023-04-09T23:38:17.632Z,47.93
2023-04-09T23:40:47.203Z,47.84
2023-04-09T23:43:19.337Z,47.92
2023-04-09T23:45:56.199Z,48.02
2023-04-09T23:48:40.000Z,47.81
2023-04-09T23:51:06.691Z,47.81
2023-04-09T23:53:33.233Z,47.80
2023-04-09T23:56:02.024Z,47.85
2023-04-09T23:58:28.504Z,47.89
